sensor_id;sensor_type;location;lat;lon;timestamp;pressure;altitude;pressure_sealevel;temperature;humidity
64211;BME280;50528;48.514;14.394;2023-04-06T00:00:12;94036.66;;;0.97;60.17
64211;BME280;50528;48.514;14.394;2023-04-06T00:01:06;94036.61;;;0.95;60.15
64211;BME280;50528;48.514;14.394;2023-04-06T00:01:40;94034.56;;;0.93;60.31
64211;BME280;50528;48.514;14.394;2023-04-06T00:02:14;94036.60;;;0.93;60.29
64211;BME280;50528;48.514;14.394;2023-04-06T00:02:49;94036.30;;;0.93;60.41
64211;BME280;50528;48.514;14.394;2023-04-06T00:03:23;94032.77;;;0.94;60.41
64211;BME280;50528;48.514;14.394;2023-04-06T00:03:56;94032.14;;;0.94;60.42
64211;BME280;50528;48.514;14.394;2023-04-06T00:04:30;94031.60;;;0.95;60.46
64211;BME280;50528;48.514;14.394;2023-04-06T00:05:04;94017.32;;;0.86;60.53
64211;BME280;50528;48.514;14.394;2023-04-06T00:05:39;94029.88;;;0.95;60.55
64211;BME280;50528;48.514;14.394;2023-04-06T00:06:12;94030.39;;;0.95;60.55
64211;BME280;50528;48.514;14.394;2023-04-06T00:06:49;94028.11;;;0.95;60.49
64211;BME280;50528;48.514;14.394;2023-04-06T00:07:22;94024.55;;;0.94;60.54
64211;BME280;50528;48.514;14.394;2023-04-06T00:07:57;94024.05;;;0.94;60.57
64211;BME280;50528;48.514;14.394;2023-04-06T00:08:31;94029.52;;;0.95;60.59
64211;BME280;50528;48.514;14.394;2023-04-06T00:09:05;94028.40;;;0.95;60.58
64211;BME280;50528;48.514;14.394;2023-04-06T00:09:39;94025.81;;;0.95;60.57
64211;BME280;50528;48.514;14.394;2023-04-06T00:10:13;94024.86;;;0.96;60.55
64211;BME280;50528;48.514;14.394;2023-04-06T00:10:50;94024.59;;;0.95;60.51
64211;BME280;50528;48.514;14.394;2023-04-06T00:11:27;94024.10;;;0.95;60.56
64211;BME280;50528;48.514;14.394;2023-04-06T00:12:01;94025.81;;;0.95;60.48
64211;BME280;50528;48.514;14.394;2023-04-06T00:12:34;94021.52;;;0.95;60.45
64211;BME280;50528;48.514;14.394;2023-04-06T00:13:08;94027.00;;;0.95;60.50
64211;BME280;50528;48.514;14.394;2023-04-06T00:13:42;94024.09;;;0.95;60.44
64211;BME280;50528;48.514;14.394;2023-04-06T00:14:15;94026.09;;;0.94;60.46
64211;BME280;50528;48.514;14.394;2023-04-06T00:14:50;94025.21;;;0.95;60.47
64211;BME280;50528;48.514;14.394;2023-04-06T00:15:24;94024.59;;;0.94;60.37
64211;BME280;50528;48.514;14.394;2023-04-06T00:15:58;94028.00;;;0.94;60.33
64211;BME280;50528;48.514;14.394;2023-04-06T00:16:31;94024.10;;;0.94;60.39
64211;BME280;50528;48.514;14.394;2023-04-06T00:17:05;94024.50;;;0.94;60.44
64211;BME280;50528;48.514;14.394;2023-04-06T00:17:38;94021.95;;;0.93;60.44
64211;BME280;50528;48.514;14.394;2023-04-06T00:18:12;94024.73;;;0.93;60.46
64211;BME280;50528;48.514;14.394;2023-04-06T00:18:46;94020.16;;;0.94;60.43
64211;BME280;50528;48.514;14.394;2023-04-06T00:19:20;94011.50;;;0.88;60.48
64211;BME280;50528;48.514;14.394;2023-04-06T00:19:54;94017.99;;;0.93;60.48
64211;BME280;50528;48.514;14.394;2023-04-06T00:20:27;94018.88;;;0.93;60.45
64211;BME280;50528;48.514;14.394;2023-04-06T00:21:01;94020.11;;;0.93;60.49
64211;BME280;50528;48.514;14.394;2023-04-06T00:21:35;94020.14;;;0.92;60.51
64211;BME280;50528;48.514;14.394;2023-04-06T00:22:08;94018.65;;;0.92;60.49
64211;BME280;50528;48.514;14.394;2023-04-06T00:22:43;94021.37;;;0.92;60.48
64211;BME280;50528;48.514;14.394;2023-04-06T00:23:18;94021.41;;;0.92;60.48
64211;BME280;50528;48.514;14.394;2023-04-06T00:23:51;94017.86;;;0.91;60.53
64211;BME280;50528;48.514;14.394;2023-04-06T00:24:24;94020.63;;;0.90;60.65
64211;BME280;50528;48.514;14.394;2023-04-06T00:24:58;94020.06;;;0.90;60.62
64211;BME280;50528;48.514;14.394;2023-04-06T00:25:32;94016.44;;;0.89;60.67
64211;BME280;50528;48.514;14.394;2023-04-06T00:26:05;94016.11;;;0.89;60.67
64211;BME280;50528;48.514;14.394;2023-04-06T00:26:39;94016.07;;;0.89;60.71
64211;BME280;50528;48.514;14.394;2023-04-06T00:27:13;94015.23;;;0.88;60.70
64211;BME280;50528;48.514;14.394;2023-04-06T00:27:46;94013.90;;;0.86;60.80
64211;BME280;50528;48.514;14.394;2023-04-06T00:28:20;94013.79;;;0.83;60.79
64211;BME280;50528;48.514;14.394;2023-04-06T00:28:58;94014.17;;;0.82;60.79
64211;BME280;50528;48.514;14.394;2023-04-06T00:29:32;94014.50;;;0.82;60.84
64211;BME280;50528;48.514;14.394;2023-04-06T00:30:07;94012.96;;;0.77;60.69
64211;BME280;50528;48.514;14.394;2023-04-06T00:30:41;94008.82;;;0.73;60.64
64211;BME280;50528;48.514;14.394;2023-04-06T00:31:14;94010.70;;;0.69;60.70
64211;BME280;50528;48.514;14.394;2023-04-06T00:31:48;94012.59;;;0.68;60.82
64211;BME280;50528;48.514;14.394;2023-04-06T00:32:21;94011.94;;;0.67;60.87
64211;BME280;50528;48.514;14.394;2023-04-06T00:32:55;94012.14;;;0.67;60.87
64211;BME280;50528;48.514;14.394;2023-04-06T00:33:29;94010.81;;;0.67;60.98
64211;BME280;50528;48.514;14.394;2023-04-06T00:34:03;94010.98;;;0.67;61.08
64211;BME280;50528;48.514;14.394;2023-04-06T00:34:37;94008.63;;;0.66;61.10
64211;BME280;50528;48.514;14.394;2023-04-06T00:35:10;94010.89;;;0.66;61.13
64211;BME280;50528;48.514;14.394;2023-04-06T00:35:44;94005.99;;;0.65;61.28
64211;BME280;50528;48.514;14.394;2023-04-06T00:36:18;94005.80;;;0.65;61.30
64211;BME280;50528;48.514;14.394;2023-04-06T00:36:52;94007.23;;;0.65;61.18
64211;BME280;50528;48.514;14.394;2023-04-06T00:37:25;94002.80;;;0.63;61.20
64211;BME280;50528;48.514;14.394;2023-04-06T00:37:59;94002.45;;;0.65;61.23
64211;BME280;50528;48.514;14.394;2023-04-06T00:38:33;94003.40;;;0.64;61.22
64211;BME280;50528;48.514;14.394;2023-04-06T00:39:06;94002.41;;;0.64;61.21
64211;BME280;50528;48.514;14.394;2023-04-06T00:39:40;94001.37;;;0.64;61.28
64211;BME280;50528;48.514;14.394;2023-04-06T00:40:14;94001.81;;;0.64;61.23
64211;BME280;50528;48.514;14.394;2023-04-06T00:40:49;93998.94;;;0.64;61.21
64211;BME280;50528;48.514;14.394;2023-04-06T00:41:23;94002.60;;;0.63;61.23
64211;BME280;50528;48.514;14.394;2023-04-06T00:41:56;93999.65;;;0.64;61.18
64211;BME280;50528;48.514;14.394;2023-04-06T00:42:30;94001.44;;;0.63;61.16
64211;BME280;50528;48.514;14.394;2023-04-06T00:43:04;94001.67;;;0.62;61.27
64211;BME280;50528;48.514;14.394;2023-04-06T00:43:37;94003.86;;;0.63;61.14
64211;BME280;50528;48.514;14.394;2023-04-06T00:44:11;94001.15;;;0.62;61.20
64211;BME280;50528;48.514;14.394;2023-04-06T00:44:44;94001.77;;;0.61;61.24
64211;BME280;50528;48.514;14.394;2023-04-06T00:45:18;93997.70;;;0.61;61.16
64211;BME280;50528;48.514;14.394;2023-04-06T00:45:52;93999.22;;;0.61;61.19
64211;BME280;50528;48.514;14.394;2023-04-06T00:46:26;93997.26;;;0.60;61.23
64211;BME280;50528;48.514;14.394;2023-04-06T00:47:01;93997.85;;;0.58;61.19
64211;BME280;50528;48.514;14.394;2023-04-06T00:47:35;93998.64;;;0.58;61.10
64211;BME280;50528;48.514;14.394;2023-04-06T00:48:09;93998.25;;;0.56;61.08
64211;BME280;50528;48.514;14.394;2023-04-06T00:48:43;93999.88;;;0.56;61.04
64211;BME280;50528;48.514;14.394;2023-04-06T00:49:16;93997.60;;;0.55;61.18
64211;BME280;50528;48.514;14.394;2023-04-06T00:49:51;93995.48;;;0.55;61.11
64211;BME280;50528;48.514;14.394;2023-04-06T00:50:25;93995.08;;;0.53;61.13
64211;BME280;50528;48.514;14.394;2023-04-06T00:50:58;93994.48;;;0.52;61.14
64211;BME280;50528;48.514;14.394;2023-04-06T00:51:32;93990.89;;;0.49;61.07
64211;BME280;50528;48.514;14.394;2023-04-06T00:52:06;93997.54;;;0.49;61.13
64211;BME280;50528;48.514;14.394;2023-04-06T00:52:39;93994.79;;;0.49;61.15
64211;BME280;50528;48.514;14.394;2023-04-06T00:53:13;93996.77;;;0.49;61.15
64211;BME280;50528;48.514;14.394;2023-04-06T00:53:47;93997.00;;;0.47;61.19
64211;BME280;50528;48.514;14.394;2023-04-06T00:54:20;93995.63;;;0.45;61.11
64211;BME280;50528;48.514;14.394;2023-04-06T00:54:54;93993.42;;;0.44;61.18
64211;BME280;50528;48.514;14.394;2023-04-06T00:55:28;93994.32;;;0.43;61.09
64211;BME280;50528;48.514;14.394;2023-04-06T00:56:02;93993.66;;;0.41;61.17
64211;BME280;50528;48.514;14.394;2023-04-06T00:56:41;93994.60;;;0.39;61.16
64211;BME280;50528;48.514;14.394;2023-04-06T00:57:17;93990.67;;;0.37;61.12
64211;BME280;50528;48.514;14.394;2023-04-06T00:57:51;93992.84;;;0.36;61.11
64211;BME280;50528;48.514;14.394;2023-04-06T00:58:25;93994.46;;;0.36;61.15
64211;BME280;50528;48.514;14.394;2023-04-06T00:59:05;93998.16;;;0.34;61.16
64211;BME280;50528;48.514;14.394;2023-04-06T00:59:40;93996.42;;;0.32;61.15
64211;BME280;50528;48.514;14.394;2023-04-06T01:00:15;93996.31;;;0.30;61.12
64211;BME280;50528;48.514;14.394;2023-04-06T01:00:50;93989.08;;;0.25;61.16
64211;BME280;50528;48.514;14.394;2023-04-06T01:01:25;93997.59;;;0.27;61.08
64211;BME280;50528;48.514;14.394;2023-04-06T01:01:59;93996.48;;;0.25;61.16
64211;BME280;50528;48.514;14.394;2023-04-06T01:02:39;93995.75;;;0.22;61.09
64211;BME280;50528;48.514;14.394;2023-04-06T01:03:13;93995.77;;;0.21;61.17
64211;BME280;50528;48.514;14.394;2023-04-06T01:03:48;93998.55;;;0.19;61.14
64211;BME280;50528;48.514;14.394;2023-04-06T01:04:23;93997.87;;;0.17;61.21
64211;BME280;50528;48.514;14.394;2023-04-06T01:04:57;93996.70;;;0.16;61.19
64211;BME280;50528;48.514;14.394;2023-04-06T01:05:38;93997.77;;;0.14;61.29
64211;BME280;50528;48.514;14.394;2023-04-06T01:06:20;93995.63;;;0.09;61.29
64211;BME280;50528;48.514;14.394;2023-04-06T01:07:02;93999.11;;;0.09;61.18
64211;BME280;50528;48.514;14.394;2023-04-06T01:07:42;93999.14;;;0.07;61.23
64211;BME280;50528;48.514;14.394;2023-04-06T01:08:19;93997.31;;;0.05;61.24
64211;BME280;50528;48.514;14.394;2023-04-06T01:08:55;94000.00;;;0.04;61.23
64211;BME280;50528;48.514;14.394;2023-04-06T01:09:30;93999.01;;;0.02;61.25
64211;BME280;50528;48.514;14.394;2023-04-06T01:10:06;94003.64;;;0.00;61.24
64211;BME280;50528;48.514;14.394;2023-04-06T01:10:41;93998.45;;;-0.02;61.35
64211;BME280;50528;48.514;14.394;2023-04-06T01:11:43;94000.19;;;-0.08;61.23
64211;BME280;50528;48.514;14.394;2023-04-06T01:12:18;94003.30;;;-0.10;61.25
64211;BME280;50528;48.514;14.394;2023-04-06T01:12:51;93998.98;;;-0.11;61.34
64211;BME280;50528;48.514;14.394;2023-04-06T01:13:36;93998.36;;;-0.15;61.38
64211;BME280;50528;48.514;14.394;2023-04-06T01:14:14;93996.95;;;-0.16;61.37
64211;BME280;50528;48.514;14.394;2023-04-06T01:14:54;94000.11;;;-0.18;61.30
64211;BME280;50528;48.514;14.394;2023-04-06T01:15:29;93999.92;;;-0.19;61.34
64211;BME280;50528;48.514;14.394;2023-04-06T01:16:04;94000.39;;;-0.20;61.36
64211;BME280;50528;48.514;14.394;2023-04-06T01:16:49;94000.25;;;-0.23;61.35
64211;BME280;50528;48.514;14.394;2023-04-06T01:17:26;94001.77;;;-0.26;61.33
64211;BME280;50528;48.514;14.394;2023-04-06T01:18:03;93996.74;;;-0.27;61.46
64211;BME280;50528;48.514;14.394;2023-04-06T01:18:38;93994.08;;;-0.29;61.46
64211;BME280;50528;48.514;14.394;2023-04-06T01:19:21;93997.56;;;-0.30;61.48
64211;BME280;50528;48.514;14.394;2023-04-06T01:19:56;93995.85;;;-0.31;61.42
64211;BME280;50528;48.514;14.394;2023-04-06T01:20:34;93997.42;;;-0.33;61.52
64211;BME280;50528;48.514;14.394;2023-04-06T01:21:08;93991.44;;;-0.36;61.55
64211;BME280;50528;48.514;14.394;2023-04-06T01:21:58;93991.50;;;-0.38;61.56
64211;BME280;50528;48.514;14.394;2023-04-06T01:22:35;93994.39;;;-0.41;61.59
64211;BME280;50528;48.514;14.394;2023-04-06T01:23:09;93992.88;;;-0.43;61.73
64211;BME280;50528;48.514;14.394;2023-04-06T01:23:45;93995.79;;;-0.42;61.75
64211;BME280;50528;48.514;14.394;2023-04-06T01:24:21;93993.20;;;-0.42;61.79
64211;BME280;50528;48.514;14.394;2023-04-06T01:25:14;93995.07;;;-0.44;61.76
64211;BME280;50528;48.514;14.394;2023-04-06T01:26:04;93991.40;;;-0.48;61.97
64211;BME280;50528;48.514;14.394;2023-04-06T01:26:38;93993.41;;;-0.49;61.92
64211;BME280;50528;48.514;14.394;2023-04-06T01:27:13;93992.70;;;-0.49;61.87
64211;BME280;50528;48.514;14.394;2023-04-06T01:28:05;93994.27;;;-0.52;61.79
64211;BME280;50528;48.514;14.394;2023-04-06T01:28:58;93996.72;;;-0.55;61.83
64211;BME280;50528;48.514;14.394;2023-04-06T01:29:34;93997.51;;;-0.56;61.79
64211;BME280;50528;48.514;14.394;2023-04-06T01:30:08;93996.67;;;-0.56;61.80
64211;BME280;50528;48.514;14.394;2023-04-06T01:30:47;93994.98;;;-0.57;61.83
64211;BME280;50528;48.514;14.394;2023-04-06T01:31:39;93998.73;;;-0.59;61.67
64211;BME280;50528;48.514;14.394;2023-04-06T01:32:13;93997.41;;;-0.64;61.63
64211;BME280;50528;48.514;14.394;2023-04-06T01:32:52;93997.35;;;-0.67;61.67
64211;BME280;50528;48.514;14.394;2023-04-06T01:33:53;93997.48;;;-0.72;61.62
64211;BME280;50528;48.514;14.394;2023-04-06T01:34:29;93996.70;;;-0.74;61.66
64211;BME280;50528;48.514;14.394;2023-04-06T01:35:06;93996.59;;;-0.75;61.64
64211;BME280;50528;48.514;14.394;2023-04-06T01:35:41;93994.80;;;-0.76;61.64
64211;BME280;50528;48.514;14.394;2023-04-06T01:36:20;93996.19;;;-0.76;61.70
64211;BME280;50528;48.514;14.394;2023-04-06T01:37:00;93995.38;;;-0.78;61.75
64211;BME280;50528;48.514;14.394;2023-04-06T01:37:35;93993.84;;;-0.79;61.71
64211;BME280;50528;48.514;14.394;2023-04-06T01:38:09;93996.32;;;-0.80;61.68
64211;BME280;50528;48.514;14.394;2023-04-06T01:38:43;93994.52;;;-0.81;61.58
64211;BME280;50528;48.514;14.394;2023-04-06T01:39:19;93991.80;;;-0.83;61.49
64211;BME280;50528;48.514;14.394;2023-04-06T01:39:53;93990.52;;;-0.84;61.46
64211;BME280;50528;48.514;14.394;2023-04-06T01:40:41;93993.26;;;-0.88;61.32
64211;BME280;50528;48.514;14.394;2023-04-06T01:41:15;93988.35;;;-0.92;61.21
64211;BME280;50528;48.514;14.394;2023-04-06T01:41:54;93989.11;;;-0.94;61.24
64211;BME280;50528;48.514;14.394;2023-04-06T01:42:28;93968.08;;;-1.09;61.29
64211;BME280;50528;48.514;14.394;2023-04-06T01:43:02;93989.10;;;-0.97;61.19
64211;BME280;50528;48.514;14.394;2023-04-06T01:43:52;93989.73;;;-1.02;61.13
64211;BME280;50528;48.514;14.394;2023-04-06T01:44:31;93991.37;;;-1.01;61.15
64211;BME280;50528;48.514;14.394;2023-04-06T01:45:13;93992.83;;;-1.02;61.17
64211;BME280;50528;48.514;14.394;2023-04-06T01:45:46;93993.11;;;-1.03;61.26
64211;BME280;50528;48.514;14.394;2023-04-06T01:46:24;93986.85;;;-1.06;61.38
64211;BME280;50528;48.514;14.394;2023-04-06T01:46:57;93989.10;;;-1.06;61.37
64211;BME280;50528;48.514;14.394;2023-04-06T01:47:31;93993.16;;;-1.05;61.35
64211;BME280;50528;48.514;14.394;2023-04-06T01:48:05;93972.54;;;-1.16;61.52
64211;BME280;50528;48.514;14.394;2023-04-06T01:48:39;93992.32;;;-1.05;61.44
64211;BME280;50528;48.514;14.394;2023-04-06T01:50:42;93994.24;;;-1.16;61.40
64211;BME280;50528;48.514;14.394;2023-04-06T01:51:16;93995.27;;;-1.22;61.53
64211;BME280;50528;48.514;14.394;2023-04-06T01:52:02;93991.77;;;-1.27;61.62
64211;BME280;50528;48.514;14.394;2023-04-06T01:52:37;93991.52;;;-1.28;61.46
64211;BME280;50528;48.514;14.394;2023-04-06T01:53:10;93990.84;;;-1.29;61.31
64211;BME280;50528;48.514;14.394;2023-04-06T01:53:45;93993.12;;;-1.33;61.25
64211;BME280;50528;48.514;14.394;2023-04-06T01:54:22;93992.93;;;-1.39;61.27
64211;BME280;50528;48.514;14.394;2023-04-06T01:55:08;93991.55;;;-1.45;61.19
64211;BME280;50528;48.514;14.394;2023-04-06T01:56:07;93990.34;;;-1.51;61.29
64211;BME280;50528;48.514;14.394;2023-04-06T01:56:49;93992.27;;;-1.52;61.31
64211;BME280;50528;48.514;14.394;2023-04-06T01:57:33;93991.68;;;-1.55;61.40
64211;BME280;50528;48.514;14.394;2023-04-06T01:58:21;93993.88;;;-1.56;61.35
64211;BME280;50528;48.514;14.394;2023-04-06T01:58:55;93993.14;;;-1.59;61.42
64211;BME280;50528;48.514;14.394;2023-04-06T01:59:29;93992.48;;;-1.57;61.50
64211;BME280;50528;48.514;14.394;2023-04-06T02:00:04;93988.52;;;-1.57;61.48
64211;BME280;50528;48.514;14.394;2023-04-06T02:00:55;93994.20;;;-1.60;61.51
64211;BME280;50528;48.514;14.394;2023-04-06T02:01:29;93993.91;;;-1.61;61.58
64211;BME280;50528;48.514;14.394;2023-04-06T02:02:03;93992.36;;;-1.61;61.62
64211;BME280;50528;48.514;14.394;2023-04-06T02:02:37;93992.88;;;-1.61;61.76
64211;BME280;50528;48.514;14.394;2023-04-06T02:03:14;93994.45;;;-1.61;61.70
64211;BME280;50528;48.514;14.394;2023-04-06T02:03:48;93995.48;;;-1.61;61.71
64211;BME280;50528;48.514;14.394;2023-04-06T02:04:22;93997.16;;;-1.61;61.72
64211;BME280;50528;48.514;14.394;2023-04-06T02:04:58;93991.36;;;-1.61;61.79
64211;BME280;50528;48.514;14.394;2023-04-06T02:05:34;93991.02;;;-1.64;61.78
64211;BME280;50528;48.514;14.394;2023-04-06T02:06:21;93992.45;;;-1.62;61.92
64211;BME280;50528;48.514;14.394;2023-04-06T02:06:55;93994.52;;;-1.63;61.89
64211;BME280;50528;48.514;14.394;2023-04-06T02:07:29;93993.33;;;-1.62;62.01
64211;BME280;50528;48.514;14.394;2023-04-06T02:08:04;93992.63;;;-1.63;62.04
64211;BME280;50528;48.514;14.394;2023-04-06T02:08:40;93993.45;;;-1.60;62.10
64211;BME280;50528;48.514;14.394;2023-04-06T02:09:14;93994.24;;;-1.59;62.10
64211;BME280;50528;48.514;14.394;2023-04-06T02:09:47;93993.70;;;-1.59;62.11
64211;BME280;50528;48.514;14.394;2023-04-06T02:10:28;93992.88;;;-1.62;62.10
64211;BME280;50528;48.514;14.394;2023-04-06T02:11:02;93995.39;;;-1.60;62.08
64211;BME280;50528;48.514;14.394;2023-04-06T02:11:39;93996.09;;;-1.60;62.09
64211;BME280;50528;48.514;14.394;2023-04-06T02:12:13;93994.91;;;-1.60;62.16
64211;BME280;50528;48.514;14.394;2023-04-06T02:12:46;93992.27;;;-1.61;62.10
64211;BME280;50528;48.514;14.394;2023-04-06T02:13:23;93995.39;;;-1.62;62.09
64211;BME280;50528;48.514;14.394;2023-04-06T02:13:58;93996.96;;;-1.62;62.04
64211;BME280;50528;48.514;14.394;2023-04-06T02:14:36;93993.48;;;-1.63;61.97
64211;BME280;50528;48.514;14.394;2023-04-06T02:15:14;93992.13;;;-1.65;61.93
64211;BME280;50528;48.514;14.394;2023-04-06T02:15:48;93991.16;;;-1.66;61.80
64211;BME280;50528;48.514;14.394;2023-04-06T02:16:21;93990.65;;;-1.66;61.89
64211;BME280;50528;48.514;14.394;2023-04-06T02:16:55;93992.16;;;-1.67;61.83
64211;BME280;50528;48.514;14.394;2023-04-06T02:17:29;93993.88;;;-1.67;61.83
64211;BME280;50528;48.514;14.394;2023-04-06T02:18:03;93992.04;;;-1.67;61.82
64211;BME280;50528;48.514;14.394;2023-04-06T02:18:37;93991.75;;;-1.70;61.78
64211;BME280;50528;48.514;14.394;2023-04-06T02:19:11;93991.56;;;-1.69;61.87
64211;BME280;50528;48.514;14.394;2023-04-06T02:19:45;93989.91;;;-1.68;61.89
64211;BME280;50528;48.514;14.394;2023-04-06T02:20:19;93990.71;;;-1.70;62.01
64211;BME280;50528;48.514;14.394;2023-04-06T02:20:53;93988.02;;;-1.72;62.03
64211;BME280;50528;48.514;14.394;2023-04-06T02:21:27;93990.30;;;-1.70;61.94
64211;BME280;50528;48.514;14.394;2023-04-06T02:22:01;93988.33;;;-1.71;62.02
64211;BME280;50528;48.514;14.394;2023-04-06T02:22:35;93991.90;;;-1.69;62.10
64211;BME280;50528;48.514;14.394;2023-04-06T02:23:09;93988.17;;;-1.71;62.01
64211;BME280;50528;48.514;14.394;2023-04-06T02:23:43;93989.50;;;-1.71;62.01
64211;BME280;50528;48.514;14.394;2023-04-06T02:24:16;93992.60;;;-1.71;62.02
64211;BME280;50528;48.514;14.394;2023-04-06T02:24:50;93991.73;;;-1.71;62.11
64211;BME280;50528;48.514;14.394;2023-04-06T02:25:24;93991.92;;;-1.71;62.12
64211;BME280;50528;48.514;14.394;2023-04-06T02:25:58;93992.13;;;-1.71;62.14
64211;BME280;50528;48.514;14.394;2023-04-06T02:26:32;93993.11;;;-1.71;62.21
64211;BME280;50528;48.514;14.394;2023-04-06T02:27:06;93988.95;;;-1.73;62.28
64211;BME280;50528;48.514;14.394;2023-04-06T02:27:39;93993.15;;;-1.71;62.29
64211;BME280;50528;48.514;14.394;2023-04-06T02:28:13;93992.23;;;-1.74;62.30
64211;BME280;50528;48.514;14.394;2023-04-06T02:28:48;93991.28;;;-1.75;62.25
64211;BME280;50528;48.514;14.394;2023-04-06T02:29:22;93990.77;;;-1.77;62.12
64211;BME280;50528;48.514;14.394;2023-04-06T02:29:56;93990.64;;;-1.81;62.22
64211;BME280;50528;48.514;14.394;2023-04-06T02:30:30;93993.38;;;-1.81;62.08
64211;BME280;50528;48.514;14.394;2023-04-06T02:31:06;93992.80;;;-1.83;62.14
64211;BME280;50528;48.514;14.394;2023-04-06T02:31:40;93993.08;;;-1.84;62.08
64211;BME280;50528;48.514;14.394;2023-04-06T02:32:14;93994.27;;;-1.86;61.99
64211;BME280;50528;48.514;14.394;2023-04-06T02:32:48;93989.67;;;-1.90;62.03
64211;BME280;50528;48.514;14.394;2023-04-06T02:33:22;93996.09;;;-1.88;62.05
64211;BME280;50528;48.514;14.394;2023-04-06T02:33:56;93991.13;;;-1.88;62.09
64211;BME280;50528;48.514;14.394;2023-04-06T02:34:30;93992.91;;;-1.90;62.06
64211;BME280;50528;48.514;14.394;2023-04-06T02:35:04;93992.76;;;-1.91;62.11
64211;BME280;50528;48.514;14.394;2023-04-06T02:35:41;93985.34;;;-1.97;62.17
64211;BME280;50528;48.514;14.394;2023-04-06T02:36:14;93991.81;;;-1.91;62.19
64211;BME280;50528;48.514;14.394;2023-04-06T02:36:48;93992.17;;;-1.92;62.28
64211;BME280;50528;48.514;14.394;2023-04-06T02:37:22;93984.21;;;-1.97;62.17
64211;BME280;50528;48.514;14.394;2023-04-06T02:37:57;93992.14;;;-1.93;62.15
64211;BME280;50528;48.514;14.394;2023-04-06T02:38:31;93992.95;;;-1.94;62.24
64211;BME280;50528;48.514;14.394;2023-04-06T02:39:06;93990.58;;;-1.94;62.20
64211;BME280;50528;48.514;14.394;2023-04-06T02:39:41;93991.58;;;-1.94;62.20
64211;BME280;50528;48.514;14.394;2023-04-06T02:40:15;93989.98;;;-1.95;62.26
64211;BME280;50528;48.514;14.394;2023-04-06T02:40:48;93979.86;;;-2.03;62.27
64211;BME280;50528;48.514;14.394;2023-04-06T02:41:30;93988.95;;;-1.97;62.29
64211;BME280;50528;48.514;14.394;2023-04-06T02:42:04;93990.79;;;-1.98;62.33
64211;BME280;50528;48.514;14.394;2023-04-06T02:42:37;93991.67;;;-1.98;62.48
64211;BME280;50528;48.514;14.394;2023-04-06T02:43:11;93988.55;;;-1.98;62.53
64211;BME280;50528;48.514;14.394;2023-04-06T02:43:45;93991.94;;;-1.97;62.52
64211;BME280;50528;48.514;14.394;2023-04-06T02:44:29;93988.69;;;-1.99;62.57
64211;BME280;50528;48.514;14.394;2023-04-06T02:45:03;93991.77;;;-2.00;62.56
64211;BME280;50528;48.514;14.394;2023-04-06T02:45:38;93983.91;;;-2.02;62.76
64211;BME280;50528;48.514;14.394;2023-04-06T02:46:12;93990.41;;;-2.01;62.72
64211;BME280;50528;48.514;14.394;2023-04-06T02:46:46;93986.38;;;-2.00;62.89
64211;BME280;50528;48.514;14.394;2023-04-06T02:47:22;93988.37;;;-1.99;62.92
64211;BME280;50528;48.514;14.394;2023-04-06T02:47:56;93988.01;;;-1.99;62.98
64211;BME280;50528;48.514;14.394;2023-04-06T02:48:30;93987.33;;;-1.99;63.01
64211;BME280;50528;48.514;14.394;2023-04-06T02:49:04;93987.95;;;-1.99;63.06
64211;BME280;50528;48.514;14.394;2023-04-06T02:49:39;93985.86;;;-2.00;63.09
64211;BME280;50528;48.514;14.394;2023-04-06T02:50:13;93989.81;;;-1.98;63.23
64211;BME280;50528;48.514;14.394;2023-04-06T02:50:53;93984.98;;;-2.00;63.22
64211;BME280;50528;48.514;14.394;2023-04-06T02:51:27;93975.48;;;-2.04;63.16
64211;BME280;50528;48.514;14.394;2023-04-06T02:52:03;93990.00;;;-1.98;63.25
64211;BME280;50528;48.514;14.394;2023-04-06T02:52:40;93985.27;;;-1.99;63.29
64211;BME280;50528;48.514;14.394;2023-04-06T02:53:14;93989.02;;;-1.99;63.34
64211;BME280;50528;48.514;14.394;2023-04-06T02:53:48;93985.44;;;-1.99;63.35
64211;BME280;50528;48.514;14.394;2023-04-06T02:54:21;93990.74;;;-1.99;63.43
64211;BME280;50528;48.514;14.394;2023-04-06T02:54:55;93987.43;;;-1.98;63.45
64211;BME280;50528;48.514;14.394;2023-04-06T02:55:35;93986.89;;;-2.00;63.49
64211;BME280;50528;48.514;14.394;2023-04-06T02:56:12;93990.55;;;-1.99;63.41
64211;BME280;50528;48.514;14.394;2023-04-06T02:56:50;93987.73;;;-2.00;63.44
64211;BME280;50528;48.514;14.394;2023-04-06T02:57:24;93986.38;;;-2.00;63.52
64211;BME280;50528;48.514;14.394;2023-04-06T02:57:57;93989.23;;;-2.00;63.50
64211;BME280;50528;48.514;14.394;2023-04-06T02:58:34;93989.73;;;-2.00;63.51
64211;BME280;50528;48.514;14.394;2023-04-06T02:59:07;93986.08;;;-2.02;63.55
64211;BME280;50528;48.514;14.394;2023-04-06T02:59:42;93987.59;;;-2.01;63.54
64211;BME280;50528;48.514;14.394;2023-04-06T03:00:22;93986.36;;;-2.03;63.55
64211;BME280;50528;48.514;14.394;2023-04-06T03:00:56;93987.14;;;-2.04;63.54
64211;BME280;50528;48.514;14.394;2023-04-06T03:01:29;93989.99;;;-2.03;63.58
64211;BME280;50528;48.514;14.394;2023-04-06T03:02:06;93989.67;;;-2.03;63.63
64211;BME280;50528;48.514;14.394;2023-04-06T03:02:40;93988.88;;;-2.04;63.54
64211;BME280;50528;48.514;14.394;2023-04-06T03:03:16;93986.33;;;-2.04;63.55
64211;BME280;50528;48.514;14.394;2023-04-06T03:03:50;93987.07;;;-2.05;63.39
64211;BME280;50528;48.514;14.394;2023-04-06T03:04:28;93984.54;;;-2.07;63.48
64211;BME280;50528;48.514;14.394;2023-04-06T03:05:02;93988.83;;;-2.07;63.42
64211;BME280;50528;48.514;14.394;2023-04-06T03:05:40;93986.14;;;-2.09;63.24
64211;BME280;50528;48.514;14.394;2023-04-06T03:06:14;93987.60;;;-2.08;63.32
64211;BME280;50528;48.514;14.394;2023-04-06T03:06:48;93987.25;;;-2.08;63.25
64211;BME280;50528;48.514;14.394;2023-04-06T03:07:29;93989.18;;;-2.09;63.17
64211;BME280;50528;48.514;14.394;2023-04-06T03:08:03;93992.91;;;-2.10;63.23
64211;BME280;50528;48.514;14.394;2023-04-06T03:08:47;93989.63;;;-2.11;63.09
64211;BME280;50528;48.514;14.394;2023-04-06T03:09:21;93990.54;;;-2.12;63.11
64211;BME280;50528;48.514;14.394;2023-04-06T03:09:55;93980.08;;;-2.20;63.05
64211;BME280;50528;48.514;14.394;2023-04-06T03:10:28;93990.95;;;-2.11;63.07